METAR stanice u blizini

 

LYBE - Beograd / Surčin, Srbija
Ažurirano: 26/05/2018 04:30
Partly Cloudy
Partly Cloudy
 Pravac vetra Z
Vetar: Z 9 km/h
Temperatura: 17°C
Tačka rose: 16°C
Vlažnost: 94%
Pritisak: 1019 hPa
Oblaci: Partly Cloudy
Vidljivost: 8 km
2018/05/26 02:30 LYBE 260230Z 28005KT 8000 NSC 17/16 Q1019 NOSIG
LYBT - Beograd / Batajnica, Srbija
Ažurirano: 26/05/2018 04:00
Partly Cloudy
Partly Cloudy
 Pravac vetra Z
Vetar: Z 7 km/h
Temperatura: 16°C
Tačka rose: 16°C
Vlažnost: 100%
Pritisak: 1019 hPa
Oblaci: Partly Cloudy
Vidljivost: 8 km
2018/05/26 02:00 LYBT 260200Z 28004KT 8000 NSC 16/16 Q1019 NOSIG
LYVR - Vršac, Srbija
Ažurirano: 26/05/2018 04:00
Vedro
Vedro
 Pravac vetra SSI
Vetar: SSI 6 km/h
Temperatura: 17°C
Tačka rose: 14°C
Vlažnost: 83%
Pritisak: 1018 hPa
Pregled: Vedro
Vidljivost: greater than 10 km
2018/05/26 02:00 LYVR 260200Z 02003KT 300V060 CAVOK 17/14 Q1018 NOSIG
 
LYKV - Lađevci, Srbija
Ažurirano: 26/05/2018 04:30
Vedro
Vedro
 Pravac vetra I
Vetar: I 4 km/h
Temperatura: 14°C
Tačka rose: 13°C
Vlažnost: 94%
Pritisak: 1019 hPa
Pregled: Vedro
Vidljivost: greater than 10 km
2018/05/26 02:30 LYKV 260230Z 10002KT CAVOK 14/13 Q1019 NOSIG
LYNI - Niš, Srbija
Ažurirano: 26/05/2018 04:30
Shallow fog, Delimično oblačno
Shallow fog, Delimično oblačno
 Pravac vetra ZSZ
Vetar: ZSZ 6 km/h
Temperatura: 13°C
Tačka rose: 13°C
Vlažnost: 100%
Pritisak: 1018 hPa
Pregled: Shallow Fog
Oblaci: Partly Cloudy
Vidljivost: 8 km
2018/05/26 02:30 LYNI 260230Z 30003KT 8000 MIFG NSC 13/13 Q1018 NOSIG
BKPR - Priština, Srbija
Ažurirano: 26/05/2018 04:30
Few Clouds
Few Clouds
 Pravac vetra varies
Vetar: varies 6 km/h
Temperatura: 13°C
Tačka rose: 10°C
Vlažnost: 82%
Pritisak: 1019 hPa
Oblaci: Few Clouds
Vidljivost: 10 km
Cloud details: Few Clouds 2743 m
2018/05/26 02:30 BKPR 260230Z VRB03KT 9999 FEW090 13/10 Q1019 NOSIG
 
LHPP - Pecs / Pogany, Hungary
Ažurirano: 25/05/2018 18:45
NOT Current
Vedro
Vedro
 Pravac vetra SI
Vetar: SI 9 km/h
Temperatura: 20°C
Tačka rose: 17°C
Vlažnost: 83%
Pritisak: 1018 hPa
Pregled: Vedro
Vidljivost: greater than 10 km
2018/05/25 16:45 LHPP 251645Z 04005KT CAVOK 20/17 Q1018
LHUD - Szeged, Hungary
Ažurirano: 26/05/2018 03:45
Vedro
Vedro
 Pravac vetra S
Vetar: S 9 km/h
Temperatura: 17°C
Tačka rose: 16°C
Vlažnost: 94%
Pritisak: 1019 hPa
Pregled: Vedro
Vidljivost: greater than 10 km
2018/05/26 01:45 LHUD 260145Z 35005KT CAVOK 17/16 Q1019
LRTR - Timisoara, Romania
Ažurirano: 26/05/2018 04:00
Vedro
Vedro
 Pravac vetra ISI
Vetar: ISI 4 km/h
Temperatura: 15°C
Tačka rose: 15°C
Vlažnost: 100%
Pritisak: 1018 hPa
Pregled: Vedro
Vidljivost: greater than 10 km
2018/05/26 02:00 LRTR 260200Z 06002KT CAVOK 15/15 Q1018
 
LRCV - Craiova, Romania
Ažurirano: 26/05/2018 04:00
Vedro
Vedro
 Pravac vetra Z
Vetar: Z 9 km/h
Temperatura: 14°C
Tačka rose: 13°C
Vlažnost: 94%
Pritisak: 1018 hPa
Pregled: Vedro
Vidljivost: greater than 10 km
2018/05/26 02:00 LRCV 260200Z 28005KT CAVOK 14/13 Q1018
LBSF - Sofia, Bulgaria
Ažurirano: 26/05/2018 04:30
Few Clouds
Few Clouds
 Pravac vetra calm
Vetar: Tišina
Temperatura: 13°C
Tačka rose: 12°C
Vlažnost: 94%
Pritisak: 1019 hPa
Oblaci: Few Clouds
Vidljivost: 7 km
Cloud details: Few Clouds 305 m
2018/05/26 02:30 LBSF 260230Z 00000KT 7000 FEW010 13/12 Q1019 TEMPO 5000 BR
LWSK - Skoplje, Makedonija
Ažurirano: 26/05/2018 03:00
NOT Current
Vedro
Vedro
 Pravac vetra calm
Vetar: Tišina
Temperatura: 13°C
Tačka rose: 12°C
Vlažnost: 94%
Pritisak: 1018 hPa
Pregled: Vedro
Vidljivost: greater than 10 km
2018/05/26 01:00 LWSK 260100Z 00000KT CAVOK 13/12 Q1018 NOSIG
 
LYPG - Podgorica, Crna Gora
Ažurirano: 26/05/2018 04:00
Vedro
Vedro
 Pravac vetra SSZ
Vetar: SSZ 15 km/h
Temperatura: 20°C
Tačka rose: 13°C
Vlažnost: 64%
Pritisak: 1015 hPa
Pregled: Vedro
Vidljivost: greater than 10 km
2018/05/26 02:00 LYPG 260200Z 33008KT CAVOK 20/13 Q1015 NOSIG
LQSA - Sarajevo, Bosna i Hercegovina
Ažurirano: 26/05/2018 04:00
Vedro
Vedro
 Pravac vetra JJI
Vetar: JJI 6 km/h
Temperatura: 12°C
Tačka rose: 12°C
Vlažnost: 100%
Pritisak: 1020 hPa
Pregled: Vedro
Vidljivost: greater than 10 km
2018/05/26 02:00 LQSA 260200Z 15003KT CAVOK 12/12 Q1020
LDOS - Osijek, Hrvatksa
Ažurirano: 01/01/1970 01:00
NOT Current
unable to load LDOS data RC=404 Not Found
unable to load LDOS data RC=404 Not Found